Catharpin, Virginia
Current Conditions -  °F | °C
As of 10:52 AM on Friday 31 Oct 2014 (Local Time) from KIAD Reporting Station
Broken Clouds Broken Clouds  
Wind Chill: 50°   Ceiling: 5500
Heat Index: 50°   Visibility: 10mi
Dew Point: 38°   Wind: 6mph
Humidity: 63%   Direction: 100°E
Pressure: 29.98"   Gusts: NA
Location:  38.86°N, 77.57°W
Report Text: KIAD 311452Z 10005KT 10SM BKN055 10/03 A2998 RMK AO2 SLP154 T01000033 58005
Loading
Personal Weather Stations






























Interactive Weather Map
Tropical Storm Tracking
New forecast layout! Learn more

10-Day Weather Forecast

Advertisements
Track Severe Weather on mobile